Time;durP1;ratioP1;P1;durP2;ratioP2;P2;SDS_P1;SDS_P2;PMS_P1;PMS_P2;Temp;Humidity;BMP_temperature;BMP_pressure;BME280_temperature;BME280_humidity;BME280_pressure;Samples;Min_cycle;Max_cycle;Signal;HPM_P1;HPM_P2
2021/12/23 00:01:13;;;;;;;33.40;19.80;;;1.00;38.30;;;;;;5033009;28;20387;-73
2021/12/23 00:03:39;;;;;;;33.78;20.02;;;1.00;37.90;;;;;;5032531;28;20398;-73
2021/12/23 00:06:05;;;;;;;39.10;20.73;;;0.90;38.10;;;;;;5032662;28;20395;-73
2021/12/23 00:08:30;;;;;;;33.20;20.65;;;0.90;38.60;;;;;;5038622;28;20408;-73
2021/12/23 00:10:56;;;;;;;36.83;20.50;;;1.00;38.40;;;;;;5012997;28;20396;-73
2021/12/23 00:13:22;;;;;;;34.33;20.50;;;1.10;38.10;;;;;;5013179;28;20389;-73
2021/12/23 00:23:46;;;;;;;34.37;19.83;;;1.20;37.30;;;;;;5014612;28;20471;-73
2021/12/23 00:26:11;;;;;;;36.22;20.55;;;1.20;38.20;;;;;;5013725;28;20389;-74
2021/12/23 00:28:37;;;;;;;35.17;19.60;;;1.20;36.90;;;;;;5028589;28;20433;-73
2021/12/23 00:31:04;;;;;;;34.00;19.60;;;1.20;37.20;;;;;;5014217;28;20408;-74
2021/12/23 00:33:31;;;;;;;35.65;19.42;;;1.10;37.40;;;;;;5013685;28;20415;-74
2021/12/23 00:35:57;;;;;;;32.15;18.60;;;1.20;37.40;;;;;;5012377;28;20468;-74
2021/12/23 00:38:30;;;;;;;33.90;19.65;;;1.40;36.80;;;;;;5012712;28;20451;-75
2021/12/23 00:40:58;;;;;;;32.63;19.40;;;1.50;36.30;;;;;;5032649;28;20868;-74
2021/12/23 00:43:24;;;;;;;39.10;20.63;;;1.50;36.30;;;;;;5031715;28;20402;-73
2021/12/23 00:45:50;;;;;;;31.73;19.23;;;1.20;36.90;;;;;;5027589;28;20791;-73
2021/12/23 00:48:16;;;;;;;29.98;18.73;;;1.20;37.50;;;;;;5023865;28;20397;-73
2021/12/23 00:50:42;;;;;;;37.13;19.85;;;1.30;37.40;;;;;;5012683;28;20431;-74
2021/12/23 00:53:10;;;;;;;36.08;20.50;;;1.40;37.50;;;;;;5012331;28;20381;-73
2021/12/23 00:55:36;;;;;;;38.17;21.23;;;1.40;37.00;;;;;;5012184;28;20795;-72
2021/12/23 00:58:02;;;;;;;35.20;19.70;;;1.40;36.90;;;;;;5012066;28;20431;-74
2021/12/23 01:00:27;;;;;;;35.90;20.08;;;1.30;37.50;;;;;;5028712;28;20391;-74
2021/12/23 01:02:53;;;;;;;35.73;19.53;;;1.20;37.40;;;;;;5017390;28;20393;-73
2021/12/23 01:05:22;;;;;;;37.28;21.08;;;1.20;37.60;;;;;;5011678;28;20388;-74
2021/12/23 01:07:48;;;;;;;37.55;20.17;;;1.00;38.10;;;;;;5042824;28;20797;-73
2021/12/23 01:10:15;;;;;;;38.15;20.55;;;1.20;37.70;;;;;;5051835;28;20466;-72
2021/12/23 01:12:48;;;;;;;35.97;18.55;;;1.20;37.60;;;;;;5039903;28;20406;-73
2021/12/23 01:15:27;;;;;;;37.67;19.65;;;1.20;37.70;;;;;;5031983;28;20449;-73
2021/12/23 01:17:59;;;;;;;38.30;21.98;;;1.20;38.00;;;;;;5025727;28;20403;-74
2021/12/23 01:20:31;;;;;;;38.05;21.35;;;1.10;38.50;;;;;;5031390;28;20470;-74
2021/12/23 01:23:08;;;;;;;37.72;21.98;;;1.00;38.90;;;;;;5030304;28;20397;-73
2021/12/23 01:25:36;;;;;;;37.70;20.25;;;1.00;38.90;;;;;;5028936;28;20437;-73
2021/12/23 01:28:03;;;;;;;35.85;20.88;;;1.10;38.60;;;;;;5011640;28;20468;-73
2021/12/23 01:30:30;;;;;;;36.58;21.55;;;1.10;38.70;;;;;;5011126;28;20397;-74
2021/12/23 01:32:56;;;;;;;39.85;21.35;;;1.10;38.30;;;;;;5024745;28;20760;-73
2021/12/23 01:35:23;;;;;;;38.70;21.40;;;1.00;38.30;;;;;;5030350;28;20803;-73
2021/12/23 01:37:49;;;;;;;40.03;21.23;;;1.10;38.80;;;;;;5019187;28;20476;-73
2021/12/23 01:40:17;;;;;;;35.80;21.10;;;1.20;37.90;;;;;;5011514;28;20396;-73
2021/12/23 01:42:43;;;;;;;36.85;20.80;;;1.20;37.90;;;;;;5021690;28;20486;-73
2021/12/23 01:45:13;;;;;;;37.90;21.50;;;1.20;37.80;;;;;;5031491;28;20418;-72
2021/12/23 01:47:39;;;;;;;39.15;21.90;;;1.20;38.10;;;;;;5030464;28;20407;-73
2021/12/23 01:50:12;;;;;;;40.15;21.17;;;1.40;37.60;;;;;;5030953;28;20976;-72
2021/12/23 01:52:39;;;;;;;37.65;21.75;;;1.30;37.50;;;;;;5030233;28;20391;-72
2021/12/23 01:55:05;;;;;;;39.97;21.40;;;1.30;38.10;;;;;;5030634;28;20415;-72
2021/12/23 01:57:32;;;;;;;37.13;20.40;;;1.10;38.70;;;;;;5030205;28;20406;-73
2021/12/23 01:59:58;;;;;;;36.70;20.80;;;1.20;38.20;;;;;;5031039;28;20386;-72
2021/12/23 02:02:25;;;;;;;37.72;21.98;;;1.20;38.50;;;;;;5026258;28;20862;-72
2021/12/23 02:04:51;;;;;;;36.58;21.13;;;1.20;38.20;;;;;;5025353;28;20432;-71
2021/12/23 02:07:17;;;;;;;34.63;20.58;;;1.20;38.50;;;;;;5016787;28;20393;-71
2021/12/23 02:09:43;;;;;;;36.85;20.05;;;1.20;38.10;;;;;;5030843;28;20382;-71
2021/12/23 02:12:09;;;;;;;40.83;21.50;;;1.10;38.40;;;;;;5024534;28;20396;-73
2021/12/23 02:14:35;;;;;;;35.60;20.40;;;1.20;38.40;;;;;;5019068;28;20411;-72
2021/12/23 02:17:00;;;;;;;33.80;20.30;;;1.20;38.60;;;;;;5032310;28;20765;-72
2021/12/23 02:19:26;;;;;;;36.92;21.30;;;1.10;39.00;;;;;;5034479;28;20417;-73
2021/12/23 02:21:52;;;;;;;38.55;22.77;;;1.10;39.10;;;;;;5034281;28;20429;-73
2021/12/23 02:24:19;;;;;;;38.60;20.63;;;1.00;39.50;;;;;;5018586;28;20588;-73
2021/12/23 02:26:45;;;;;;;40.22;23.27;;;1.10;39.10;;;;;;5019802;28;20391;-73
2021/12/23 02:29:11;;;;;;;41.30;22.33;;;1.00;39.90;;;;;;5034486;28;20421;-73
2021/12/23 02:31:38;;;;;;;39.28;21.98;;;1.10;39.80;;;;;;5034300;28;20927;-73
2021/12/23 02:34:04;;;;;;;38.73;22.63;;;1.00;39.90;;;;;;5034716;28;20459;-72
2021/12/23 02:36:32;;;;;;;39.17;21.83;;;1.10;39.90;;;;;;5033187;28;20418;-73
2021/12/23 02:38:58;;;;;;;39.88;21.10;;;1.20;40.00;;;;;;5029194;28;20403;-73
2021/12/23 02:41:24;;;;;;;36.43;21.10;;;1.30;39.60;;;;;;5014993;28;20478;-72
2021/12/23 02:43:50;;;;;;;39.33;22.65;;;1.50;38.80;;;;;;5015168;28;20858;-73
2021/12/23 02:46:19;;;;;;;35.10;20.37;;;1.30;39.20;;;;;;5015258;28;20395;-74
2021/12/23 02:48:45;;;;;;;39.90;20.95;;;1.40;38.90;;;;;;5029083;28;20401;-74
2021/12/23 02:51:13;;;;;;;40.20;22.40;;;1.40;38.80;;;;;;5034878;28;20757;-74
2021/12/23 02:53:40;;;;;;;42.92;22.85;;;1.40;38.80;;;;;;5033619;28;20476;-73
2021/12/23 02:56:08;;;;;;;40.03;22.60;;;1.40;38.80;;;;;;5033695;28;20958;-72
2021/12/23 02:58:34;;;;;;;38.90;21.83;;;1.40;38.50;;;;;;5033460;28;20436;-72
2021/12/23 03:01:03;;;;;;;42.77;22.37;;;1.40;38.90;;;;;;5025112;28;20397;-73
2021/12/23 03:03:28;;;;;;;41.15;21.52;;;1.50;38.80;;;;;;5013395;28;20396;-73
2021/12/23 03:05:56;;;;;;;42.20;21.70;;;1.50;38.80;;;;;;5021207;28;20758;-71
2021/12/23 03:08:31;;;;;;;41.10;21.73;;;1.50;38.90;;;;;;5031832;28;20402;-72
2021/12/23 03:10:56;;;;;;;38.15;22.58;;;1.50;39.00;;;;;;5034505;28;20876;-72
2021/12/23 03:13:22;;;;;;;37.83;22.87;;;1.50;38.80;;;;;;5022686;28;20404;-73
2021/12/23 03:15:48;;;;;;;41.25;21.95;;;1.50;39.00;;;;;;5014484;28;20931;-72
2021/12/23 03:18:13;;;;;;;39.00;22.88;;;1.40;39.20;;;;;;5026830;28;20435;-72
2021/12/23 03:20:39;;;;;;;44.03;22.30;;;1.50;38.80;;;;;;5014078;28;20901;-72
2021/12/23 03:23:05;;;;;;;38.70;22.97;;;1.40;39.60;;;;;;5014329;28;20454;-71
2021/12/23 03:25:30;;;;;;;40.20;22.48;;;1.40;39.60;;;;;;5013848;28;20399;-73
2021/12/23 03:27:56;;;;;;;38.20;22.65;;;1.40;39.50;;;;;;5012925;28;20404;-73
2021/12/23 03:30:21;;;;;;;40.40;22.83;;;1.20;40.00;;;;;;5014491;28;20766;-72
2021/12/23 03:32:47;;;;;;;45.40;23.00;;;1.20;40.40;;;;;;5013887;28;20451;-71
2021/12/23 03:35:13;;;;;;;42.40;22.90;;;1.20;40.50;;;;;;5013986;28;20420;-71
2021/12/23 03:37:38;;;;;;;37.90;22.60;;;1.20;40.90;;;;;;5013852;28;20385;-73
2021/12/23 03:40:05;;;;;;;36.70;22.17;;;1.10;40.90;;;;;;5028971;28;20395;-73
2021/12/23 03:42:31;;;;;;;39.42;22.77;;;1.10;41.50;;;;;;5033499;28;20383;-72
2021/12/23 03:44:56;;;;;;;38.33;22.53;;;1.20;40.80;;;;;;5015846;28;20871;-72
2021/12/23 03:47:22;;;;;;;38.60;22.70;;;1.10;41.30;;;;;;5025730;28;20942;-72
2021/12/23 03:49:47;;;;;;;41.10;22.73;;;1.20;41.00;;;;;;5022609;28;20400;-72
2021/12/23 03:52:13;;;;;;;45.28;24.95;;;1.20;41.00;;;;;;5013853;28;20475;-72
2021/12/23 03:54:39;;;;;;;41.90;22.67;;;1.00;42.40;;;;;;5021314;28;20801;-72
2021/12/23 03:57:05;;;;;;;41.53;23.00;;;1.00;42.00;;;;;;5017386;28;20442;-71
2021/12/23 03:59:30;;;;;;;41.70;23.77;;;1.10;42.20;;;;;;5012648;28;20406;-72
2021/12/23 04:01:56;;;;;;;41.90;22.70;;;1.00;42.50;;;;;;5021325;28;20778;-72
2021/12/23 04:04:22;;;;;;;46.03;24.33;;;1.10;42.70;;;;;;5012679;28;20476;-71
2021/12/23 04:06:47;;;;;;;40.03;23.47;;;1.00;42.60;;;;;;5016576;28;20393;-72
2021/12/23 04:09:13;;;;;;;40.38;23.02;;;1.00;42.50;;;;;;5055130;28;20439;-72
2021/12/23 04:11:39;;;;;;;43.03;24.08;;;1.00;43.00;;;;;;5030638;28;20749;-72
2021/12/23 04:14:04;;;;;;;41.17;24.10;;;1.00;43.10;;;;;;5013235;28;20458;-71
2021/12/23 04:16:30;;;;;;;46.70;26.42;;;0.90;44.10;;;;;;5027483;28;20411;-71
2021/12/23 04:18:56;;;;;;;45.45;25.15;;;0.90;44.20;;;;;;5028862;28;20411;-70
2021/12/23 04:21:22;;;;;;;40.00;23.15;;;1.00;44.40;;;;;;5012351;28;20404;-71
2021/12/23 04:23:48;;;;;;;43.08;23.95;;;1.00;43.60;;;;;;5012171;28;20861;-71
2021/12/23 04:26:14;;;;;;;46.25;24.40;;;0.90;44.80;;;;;;5012507;28;20392;-72
2021/12/23 04:28:47;;;;;;;44.40;23.60;;;0.80;44.60;;;;;;5021710;28;20391;-71
2021/12/23 04:31:15;;;;;;;44.88;23.88;;;1.00;43.90;;;;;;5031416;28;20402;-72
2021/12/23 04:33:41;;;;;;;45.13;25.00;;;0.90;44.50;;;;;;5031822;28;20407;-71
2021/12/23 04:36:07;;;;;;;45.67;24.80;;;0.90;43.80;;;;;;5028680;28;20557;-72
2021/12/23 04:38:33;;;;;;;43.55;24.65;;;1.00;43.70;;;;;;5018281;28;20405;-71
2021/12/23 04:40:59;;;;;;;42.27;23.53;;;0.90;44.60;;;;;;5019332;28;20396;-72
2021/12/23 04:43:24;;;;;;;42.97;24.10;;;0.70;45.50;;;;;;5011676;28;20376;-72
2021/12/23 04:45:50;;;;;;;44.50;24.83;;;0.80;45.40;;;;;;5011235;28;20389;-72
2021/12/23 04:48:15;;;;;;;45.47;25.48;;;0.70;46.30;;;;;;5023921;28;20402;-72
2021/12/23 04:50:41;;;;;;;49.83;26.60;;;0.70;46.40;;;;;;5030971;28;20395;-72
2021/12/23 04:53:06;;;;;;;44.60;25.63;;;0.70;46.60;;;;;;5032256;28;20380;-72
2021/12/23 04:55:32;;;;;;;48.70;25.30;;;0.80;46.20;;;;;;5032201;28;20418;-72
2021/12/23 04:57:58;;;;;;;46.10;24.23;;;0.80;45.80;;;;;;5030497;28;20393;-72
2021/12/23 05:00:23;;;;;;;44.30;24.63;;;0.90;46.30;;;;;;5027595;28;20797;-72
2021/12/23 05:02:49;;;;;;;45.85;25.92;;;1.00;45.30;;;;;;5031750;28;20437;-72
2021/12/23 05:05:16;;;;;;;45.00;26.10;;;0.90;45.20;;;;;;5031597;28;20437;-72
2021/12/23 05:07:41;;;;;;;41.35;24.40;;;0.80;46.20;;;;;;5031693;28;20387;-71
2021/12/23 05:10:09;;;;;;;46.77;25.10;;;0.80;46.60;;;;;;5030704;28;20446;-71
2021/12/23 05:12:43;;;;;;;46.50;26.10;;;0.70;47.10;;;;;;5022665;28;20502;-72
2021/12/23 05:15:19;;;;;;;47.88;25.50;;;0.70;47.00;;;;;;5030375;28;20492;-72
2021/12/23 05:17:46;;;;;;;49.33;26.38;;;0.80;46.80;;;;;;5027145;28;20507;-72
2021/12/23 05:20:15;;;;;;;48.22;25.88;;;0.90;46.30;;;;;;5025832;28;20494;-72
2021/12/23 05:22:40;;;;;;;49.17;25.58;;;0.80;47.00;;;;;;5030071;28;20494;-72
2021/12/23 05:25:07;;;;;;;46.42;25.83;;;0.90;46.30;;;;;;5030380;28;20794;-71
2021/12/23 05:27:33;;;;;;;43.55;24.48;;;1.00;45.50;;;;;;5030685;28;20410;-72
2021/12/23 05:29:59;;;;;;;45.90;25.40;;;1.10;45.50;;;;;;5020174;28;20400;-72
2021/12/23 05:32:24;;;;;;;48.20;26.07;;;1.10;45.10;;;;;;5011399;28;20392;-72
2021/12/23 05:34:50;;;;;;;51.00;24.30;;;1.10;45.30;;;;;;5013412;28;20515;-72
2021/12/23 05:37:15;;;;;;;48.15;26.30;;;1.40;45.10;;;;;;5030682;28;20387;-72
2021/12/23 05:39:41;;;;;;;42.65;24.65;;;1.20;45.20;;;;;;5013555;28;20443;-71
2021/12/23 05:42:07;;;;;;;46.17;26.77;;;1.10;46.00;;;;;;5010773;28;20385;-71
2021/12/23 05:44:32;;;;;;;47.63;25.70;;;1.00;45.60;;;;;;5010990;28;20409;-71
2021/12/23 05:46:58;;;;;;;50.58;25.20;;;1.00;47.30;;;;;;5011711;28;20458;-72
2021/12/23 05:49:23;;;;;;;48.10;25.90;;;1.20;45.70;;;;;;5020652;28;20397;-71
2021/12/23 05:51:49;;;;;;;47.13;25.13;;;1.30;46.30;;;;;;5010626;28;20384;-72
2021/12/23 05:54:15;;;;;;;47.47;25.90;;;1.30;45.40;;;;;;5010700;28;20415;-71
2021/12/23 05:56:40;;;;;;;46.97;25.70;;;1.10;46.60;;;;;;5010864;28;20388;-73
2021/12/23 05:59:06;;;;;;;49.30;26.50;;;1.20;46.00;;;;;;5011391;28;20388;-73
2021/12/23 06:01:32;;;;;;;48.03;26.10;;;1.20;45.40;;;;;;5022477;28;20395;-72
2021/12/23 06:03:58;;;;;;;46.75;26.40;;;1.20;46.50;;;;;;5030873;28;20387;-73
2021/12/23 06:06:23;;;;;;;46.92;26.38;;;1.10;46.30;;;;;;5030480;28;20394;-72
2021/12/23 06:08:49;;;;;;;47.90;26.30;;;1.10;46.50;;;;;;5048731;28;20426;-72
2021/12/23 06:11:15;;;;;;;45.78;26.60;;;1.10;46.50;;;;;;5050432;28;20464;-73
2021/12/23 06:13:41;;;;;;;43.17;25.67;;;1.10;46.30;;;;;;5018088;28;21212;-73
2021/12/23 06:16:06;;;;;;;49.30;24.80;;;1.20;46.20;;;;;;5010457;28;20514;-73
2021/12/23 06:18:32;;;;;;;45.75;25.10;;;1.40;45.40;;;;;;5029868;28;20383;-72
2021/12/23 06:20:58;;;;;;;51.22;26.48;;;1.30;45.50;;;;;;5030596;28;20399;-73
2021/12/23 06:23:25;;;;;;;48.40;26.33;;;1.30;46.10;;;;;;5029592;28;20399;-73
2021/12/23 06:25:51;;;;;;;43.03;24.55;;;1.30;47.10;;;;;;5017437;28;20422;-74
2021/12/23 06:28:16;;;;;;;47.33;25.15;;;1.30;45.80;;;;;;5027251;28;20787;-74
2021/12/23 06:30:42;;;;;;;46.45;25.10;;;1.40;46.60;;;;;;5020725;28;20901;-74
2021/12/23 06:33:08;;;;;;;46.07;26.20;;;1.40;45.80;;;;;;5010789;28;20762;-74
2021/12/23 06:35:33;;;;;;;54.40;27.80;;;1.40;44.50;;;;;;5011125;28;20412;-74
2021/12/23 06:38:04;;;;;;;49.17;26.35;;;1.30;45.90;;;;;;5009624;28;20420;-74
2021/12/23 06:40:30;;;;;;;47.95;26.23;;;1.40;45.50;;;;;;5016650;28;20417;-74
2021/12/23 06:42:55;;;;;;;50.72;27.38;;;1.30;45.70;;;;;;5028993;28;20470;-73
2021/12/23 06:45:21;;;;;;;50.22;26.05;;;1.40;45.40;;;;;;5011011;28;20404;-73
2021/12/23 06:47:46;;;;;;;49.50;26.63;;;1.50;45.30;;;;;;5019085;28;20745;-74
2021/12/23 06:50:15;;;;;;;47.83;26.37;;;1.40;45.40;;;;;;5030193;28;20428;-72
2021/12/23 06:52:41;;;;;;;45.38;25.45;;;1.60;45.50;;;;;;5029739;28;20500;-74
2021/12/23 06:55:10;;;;;;;56.77;27.30;;;1.60;44.40;;;;;;5030571;28;20441;-74
2021/12/23 06:57:35;;;;;;;55.08;27.65;;;1.60;45.00;;;;;;5009909;28;20471;-74
2021/12/23 07:00:02;;;;;;;48.53;26.03;;;1.40;45.60;;;;;;5012413;28;20861;-73
2021/12/23 07:02:28;;;;;;;51.15;26.83;;;1.50;46.00;;;;;;5014463;28;20408;-72
2021/12/23 07:04:54;;;;;;;53.15;27.80;;;1.50;45.00;;;;;;5014890;28;20431;-74
2021/12/23 07:07:27;;;;;;;52.73;27.50;;;1.60;45.20;;;;;;5025528;28;20393;-76
2021/12/23 07:09:54;;;;;;;49.08;26.88;;;1.40;45.40;;;;;;5050765;28;20946;-74
2021/12/23 07:12:20;;;;;;;50.05;26.48;;;1.40;46.10;;;;;;5014802;28;20499;-73
2021/12/23 07:14:46;;;;;;;44.88;25.67;;;1.50;45.70;;;;;;5014637;28;20408;-74
2021/12/23 07:17:12;;;;;;;46.63;25.00;;;1.60;44.80;;;;;;5020967;28;20465;-73
2021/12/23 07:19:37;;;;;;;48.80;25.88;;;1.60;43.60;;;;;;5032753;28;20405;-73
2021/12/23 07:22:03;;;;;;;46.30;25.85;;;1.60;44.70;;;;;;5032196;28;20445;-73
2021/12/23 07:24:29;;;;;;;52.42;26.63;;;1.60;45.20;;;;;;5027057;28;20401;-74
2021/12/23 07:26:55;;;;;;;49.85;27.60;;;1.60;44.70;;;;;;5013514;28;20439;-73
2021/12/23 07:29:20;;;;;;;46.13;26.20;;;1.50;45.60;;;;;;5013042;28;20420;-73
2021/12/23 07:31:46;;;;;;;51.78;26.92;;;1.50;44.10;;;;;;5014737;28;20404;-73
2021/12/23 07:34:12;;;;;;;50.45;26.80;;;1.50;45.10;;;;;;5033521;28;20414;-74
2021/12/23 07:36:39;;;;;;;50.20;25.43;;;1.60;45.10;;;;;;5033089;28;20387;-73
2021/12/23 07:39:07;;;;;;;47.80;27.52;;;1.60;44.40;;;;;;5029897;28;20395;-73
2021/12/23 07:41:33;;;;;;;45.10;25.40;;;1.50;45.70;;;;;;5022481;28;20525;-73
2021/12/23 07:44:05;;;;;;;52.55;26.80;;;1.60;45.00;;;;;;5031619;28;20396;-73
2021/12/23 07:46:38;;;;;;;49.35;26.55;;;1.70;44.40;;;;;;5016331;28;20435;-74
2021/12/23 07:49:05;;;;;;;53.13;26.50;;;1.70;44.20;;;;;;5022982;28;20432;-72
2021/12/23 07:51:31;;;;;;;46.67;26.80;;;1.60;45.00;;;;;;5015575;28;20395;-73
2021/12/23 07:53:56;;;;;;;55.65;26.55;;;1.80;43.90;;;;;;5021013;28;20769;-74
2021/12/23 07:56:24;;;;;;;49.07;26.20;;;1.80;44.00;;;;;;5032167;28;20487;-74
2021/12/23 07:58:50;;;;;;;50.00;26.52;;;1.70;43.70;;;;;;5030664;28;20466;-74
2021/12/23 08:01:16;;;;;;;47.53;26.02;;;1.70;44.20;;;;;;5030453;28;20390;-74
2021/12/23 08:03:41;;;;;;;52.20;27.05;;;1.80;43.90;;;;;;5036795;28;20383;-73
2021/12/23 08:06:07;;;;;;;48.42;27.15;;;1.60;44.20;;;;;;5027585;28;20393;-73
2021/12/23 08:08:33;;;;;;;53.77;27.03;;;1.60;44.00;;;;;;5026660;28;20391;-73
2021/12/23 08:10:59;;;;;;;44.37;24.70;;;1.80;44.30;;;;;;5022858;28;20400;-73
2021/12/23 08:13:25;;;;;;;48.45;27.10;;;1.80;42.10;;;;;;5024971;28;20391;-74
2021/12/23 08:15:50;;;;;;;48.83;25.53;;;1.80;43.20;;;;;;5021257;28;20535;-74
2021/12/23 08:18:16;;;;;;;49.47;27.15;;;1.90;43.40;;;;;;5044322;28;20392;-72
2021/12/23 08:20:42;;;;;;;48.05;27.70;;;1.90;42.50;;;;;;5019294;28;20393;-74
2021/12/23 08:23:07;;;;;;;46.28;24.55;;;1.70;43.70;;;;;;5030803;28;20454;-74
2021/12/23 08:25:33;;;;;;;49.30;25.07;;;1.80;44.20;;;;;;5020901;28;20527;-74
2021/12/23 08:27:59;;;;;;;52.30;25.50;;;1.80;43.60;;;;;;5021431;28;20401;-72
2021/12/23 08:30:25;;;;;;;51.45;26.35;;;1.90;43.40;;;;;;5032763;28;20767;-72
2021/12/23 08:32:51;;;;;;;52.07;27.27;;;2.00;42.00;;;;;;5026789;28;20611;-73
2021/12/23 08:35:17;;;;;;;46.63;25.98;;;2.10;41.20;;;;;;5033545;28;20867;-73
2021/12/23 08:37:46;;;;;;;49.05;25.17;;;2.10;41.90;;;;;;5035711;28;20391;-73
2021/12/23 08:40:14;;;;;;;47.47;25.73;;;2.20;40.90;;;;;;5034374;28;20399;-72
2021/12/23 08:42:39;;;;;;;43.85;24.52;;;2.00;40.60;;;;;;5032730;28;20421;-73
2021/12/23 08:45:07;;;;;;;53.05;26.15;;;2.20;41.00;;;;;;5028558;28;20398;-73
2021/12/23 08:47:33;;;;;;;44.50;23.98;;;2.20;40.60;;;;;;5029470;28;20424;-72
2021/12/23 08:49:59;;;;;;;49.40;25.30;;;2.20;41.00;;;;;;5034920;28;20464;-73
2021/12/23 08:52:25;;;;;;;45.50;25.80;;;2.20;41.00;;;;;;5028135;28;20431;-72
2021/12/23 08:54:50;;;;;;;45.42;24.50;;;2.20;40.90;;;;;;5040752;28;20411;-74
2021/12/23 08:57:16;;;;;;;48.92;25.30;;;2.40;40.10;;;;;;5023268;28;20424;-73
2021/12/23 08:59:42;;;;;;;44.33;24.53;;;2.30;40.40;;;;;;5019214;28;20402;-72
2021/12/23 09:02:08;;;;;;;49.87;24.47;;;2.40;39.60;;;;;;5026858;28;20401;-72
2021/12/23 09:04:35;;;;;;;46.85;25.88;;;2.30;39.90;;;;;;5023662;28;20812;-75
2021/12/23 09:07:01;;;;;;;47.75;24.42;;;2.30;40.60;;;;;;5029262;28;20400;-74
2021/12/23 09:09:30;;;;;;;47.17;24.70;;;2.50;40.10;;;;;;5025204;28;20407;-74
2021/12/23 09:11:56;;;;;;;45.35;24.08;;;2.70;38.50;;;;;;5021451;28;20515;-74
2021/12/23 09:14:21;;;;;;;45.40;24.63;;;2.60;38.30;;;;;;5018985;28;20412;-74
2021/12/23 09:16:47;;;;;;;47.58;23.65;;;2.50;38.60;;;;;;5030727;28;20410;-73
2021/12/23 09:19:14;;;;;;;48.70;25.15;;;2.60;38.40;;;;;;5032655;28;20418;-73
2021/12/23 09:21:40;;;;;;;45.83;24.27;;;2.60;38.10;;;;;;5023438;28;20474;-73
2021/12/23 09:24:06;;;;;;;48.87;24.53;;;3.00;37.80;;;;;;5019489;28;20492;-75
2021/12/23 09:26:36;;;;;;;44.63;24.48;;;2.90;37.60;;;;;;5034044;28;20406;-73
2021/12/23 09:29:12;;;;;;;46.13;24.38;;;3.00;37.20;;;;;;5022000;28;20418;-73
2021/12/23 09:34:22;;;;;;;47.80;24.63;;;3.20;35.90;;;;;;5013616;28;20624;-74
2021/12/23 09:36:47;;;;;;;46.33;24.87;;;3.00;36.30;;;;;;5023613;28;20936;-72
2021/12/23 09:39:13;;;;;;;44.53;24.23;;;3.00;36.10;;;;;;5034426;28;20927;-74
2021/12/23 09:41:41;;;;;;;46.92;25.10;;;3.20;35.80;;;;;;5037689;28;20803;-75
2021/12/23 09:44:09;;;;;;;45.70;25.10;;;3.20;35.30;;;;;;5019901;28;20827;-73
2021/12/23 09:46:35;;;;;;;43.10;23.88;;;3.30;35.20;;;;;;5031956;28;20426;-73
2021/12/23 09:49:02;;;;;;;46.25;25.15;;;3.20;35.20;;;;;;5033661;28;20447;-73
2021/12/23 09:51:29;;;;;;;44.70;23.65;;;3.00;36.60;;;;;;5023318;28;20405;-74
2021/12/23 09:53:58;;;;;;;41.85;24.05;;;3.20;36.30;;;;;;5041161;28;21014;-74
2021/12/23 09:56:28;;;;;;;45.72;23.30;;;3.10;35.10;;;;;;5028096;28;20410;-74
2021/12/23 09:58:57;;;;;;;40.20;22.30;;;3.20;35.40;;;;;;5030337;28;20434;-74
2021/12/23 10:01:22;;;;;;;49.55;24.10;;;3.50;34.00;;;;;;5016792;28;20415;-74
2021/12/23 10:03:48;;;;;;;45.30;24.23;;;3.50;33.90;;;;;;5033482;28;20387;-75
2021/12/23 10:06:15;;;;;;;54.97;25.13;;;3.40;33.70;;;;;;5026040;28;20416;-76
2021/12/23 10:08:41;;;;;;;42.60;23.57;;;3.20;34.10;;;;;;5025467;28;20887;-74
2021/12/23 10:11:23;;;;;;;46.83;22.63;;;3.30;34.30;;;;;;5027275;28;20494;-79
2021/12/23 10:30:32;;;;;;;47.92;24.35;;;3.70;32.80;;;;;;5032588;28;20463;-74
2021/12/23 10:33:32;;;;;;;42.15;23.67;;;3.50;33.20;;;;;;5022414;28;20410;-76
2021/12/23 10:38:38;;;;;;;41.45;24.05;;;3.80;33.00;;;;;;5028554;28;20485;-72
2021/12/23 10:41:08;;;;;;;41.60;24.37;;;3.70;32.90;;;;;;5035630;28;20387;-79
2021/12/23 10:43:39;;;;;;;51.22;24.83;;;3.70;32.30;;;;;;5032247;28;20831;-75
2021/12/23 10:46:07;;;;;;;43.78;22.55;;;4.00;32.20;;;;;;5028306;28;20395;-73
2021/12/23 10:48:42;;;;;;;45.13;23.10;;;4.20;31.30;;;;;;5032494;28;21025;-74
2021/12/23 10:51:10;;;;;;;42.70;22.55;;;3.90;31.10;;;;;;5022093;28;20393;-74
2021/12/23 10:53:47;;;;;;;41.88;21.90;;;3.70;32.30;;;;;;5023442;28;20394;-75
2021/12/23 10:59:16;;;;;;;43.50;23.50;;;3.80;31.80;;;;;;5021620;28;20449;-73
2021/12/23 11:02:16;;;;;;;43.67;23.65;;;3.90;31.40;;;;;;5026718;28;20391;-74
2021/12/23 11:05:11;;;;;;;43.95;23.13;;;4.10;31.40;;;;;;5034391;28;20391;-74
2021/12/23 11:07:59;;;;;;;43.75;23.65;;;4.30;30.90;;;;;;5029094;28;20427;-73
2021/12/23 11:38:29;;;;;;;46.17;24.05;;;4.60;29.50;;;;;;5025364;28;20687;-76
2021/12/23 11:41:05;;;;;;;40.55;22.50;;;4.70;29.70;;;;;;5024123;28;20385;-75
2021/12/23 11:45:57;;;;;;;46.83;23.83;;;5.00;28.40;;;;;;5019339;28;20433;-74
2021/12/23 11:48:23;;;;;;;45.85;23.45;;;4.80;28.50;;;;;;5020876;28;20399;-73
2021/12/23 11:51:06;;;;;;;41.87;23.50;;;4.60;29.30;;;;;;5031182;28;20493;-74
2021/12/23 11:53:32;;;;;;;45.72;23.55;;;4.70;29.20;;;;;;5030726;28;20398;-76
2021/12/23 11:56:00;;;;;;;44.30;24.38;;;4.90;29.40;;;;;;5025769;28;20482;-74
2021/12/23 11:58:26;;;;;;;43.50;23.25;;;4.60;29.80;;;;;;5020985;28;20404;-74
2021/12/23 12:01:22;;;;;;;43.80;22.98;;;4.80;29.60;;;;;;5027850;28;20432;-75
2021/12/23 12:03:53;;;;;;;41.22;23.25;;;4.70;29.80;;;;;;5030660;28;20407;-73
2021/12/23 12:06:23;;;;;;;45.13;23.00;;;4.70;29.60;;;;;;5028367;28;20404;-74
2021/12/23 12:08:54;;;;;;;46.28;24.13;;;5.00;29.70;;;;;;5020732;28;20403;-73
2021/12/23 12:11:22;;;;;;;46.72;24.67;;;4.60;29.90;;;;;;5017845;28;20395;-74
2021/12/23 12:13:49;;;;;;;42.25;23.33;;;4.60;30.50;;;;;;5024445;28;20937;-73
2021/12/23 12:16:34;;;;;;;44.38;23.40;;;4.60;29.90;;;;;;5029878;28;20403;-73
2021/12/23 12:19:02;;;;;;;42.63;22.92;;;4.80;30.00;;;;;;5027376;28;20397;-71
2021/12/23 12:21:35;;;;;;;44.90;23.75;;;5.00;29.30;;;;;;5023375;28;20400;-73
2021/12/23 12:24:16;;;;;;;50.38;23.58;;;4.80;30.00;;;;;;5026405;28;20402;-72
2021/12/23 12:26:58;;;;;;;44.05;23.40;;;4.60;30.00;;;;;;5024222;28;20475;-72
2021/12/23 12:29:38;;;;;;;44.30;23.98;;;4.80;30.10;;;;;;5022698;28;20925;-73
2021/12/23 12:32:05;;;;;;;45.65;24.70;;;4.90;29.90;;;;;;5012295;28;20900;-72
2021/12/23 12:34:36;;;;;;;43.67;23.90;;;4.70;30.10;;;;;;5026888;28;20490;-72
2021/12/23 12:37:04;;;;;;;43.05;23.15;;;4.60;30.40;;;;;;5031912;28;20403;-73
2021/12/23 12:39:32;;;;;;;43.57;22.50;;;4.70;30.00;;;;;;5031556;28;20978;-73
2021/12/23 12:42:03;;;;;;;43.83;22.40;;;4.90;29.80;;;;;;5027687;28;20892;-72
2021/12/23 12:44:46;;;;;;;46.10;23.42;;;4.90;30.50;;;;;;5025565;28;20413;-73
2021/12/23 12:47:23;;;;;;;35.45;20.45;;;4.80;30.00;;;;;;5032140;28;20922;-74
2021/12/23 12:49:52;;;;;;;41.30;22.40;;;4.90;30.10;;;;;;5024162;28;20442;-72
2021/12/23 12:52:31;;;;;;;40.60;22.27;;;5.00;29.70;;;;;;5030576;28;20399;-73
2021/12/23 12:55:23;;;;;;;47.75;23.95;;;5.00;29.60;;;;;;5027146;28;20448;-74
2021/12/23 12:57:53;;;;;;;41.30;22.38;;;5.00;29.70;;;;;;5026594;28;20418;-73
2021/12/23 13:00:32;;;;;;;41.88;23.50;;;5.20;29.40;;;;;;5027470;28;20399;-73
2021/12/23 13:03:08;;;;;;;41.55;22.73;;;4.90;30.40;;;;;;5019051;28;20444;-73
2021/12/23 13:05:34;;;;;;;48.25;24.40;;;5.00;30.40;;;;;;5014304;28;20405;-74
2021/12/23 13:08:05;;;;;;;36.65;22.15;;;5.00;30.40;;;;;;5025708;28;20455;-74
2021/12/23 13:10:32;;;;;;;46.40;22.98;;;5.30;29.50;;;;;;5020157;28;20455;-73
2021/12/23 13:13:05;;;;;;;46.97;22.30;;;5.30;30.00;;;;;;5020470;28;20413;-75
2021/12/23 13:15:34;;;;;;;41.27;22.43;;;5.40;29.80;;;;;;5023326;28;20469;-75
2021/12/23 13:18:04;;;;;;;42.45;22.10;;;5.40;30.30;;;;;;5020607;28;20417;-75
2021/12/23 13:20:40;;;;;;;43.42;22.55;;;5.40;29.80;;;;;;5031685;28;20394;-74
2021/12/23 13:23:16;;;;;;;48.03;25.27;;;5.50;30.60;;;;;;5025033;28;20517;-75
2021/12/23 13:25:46;;;;;;;43.60;23.27;;;5.30;31.10;;;;;;5022601;28;20401;-75
2021/12/23 13:28:23;;;;;;;42.50;22.40;;;5.50;31.20;;;;;;5031377;28;20791;-75
2021/12/23 13:30:49;;;;;;;43.65;22.63;;;5.40;30.70;;;;;;5031098;28;20424;-74
2021/12/23 13:33:15;;;;;;;51.20;24.73;;;5.30;30.80;;;;;;5010556;28;20400;-75
2021/12/23 13:35:43;;;;;;;43.58;22.95;;;5.50;31.50;;;;;;5018244;28;20911;-74
2021/12/23 13:38:10;;;;;;;46.38;23.67;;;5.50;31.10;;;;;;5030982;28;20464;-74
2021/12/23 13:40:38;;;;;;;43.28;22.73;;;5.40;31.40;;;;;;5029874;28;20538;-74
2021/12/23 13:43:04;;;;;;;46.13;23.27;;;5.50;31.50;;;;;;5031396;28;20876;-75